sensor_id;sensor_type;location;lat;lon;timestamp;P1;durP1;ratioP1;P2;durP2;ratioP2
52878;SDS011;38747;53.140;6.498;2022-10-16T00:01:22;6.80;;;1.50;;
52878;SDS011;38747;53.140;6.498;2022-10-16T00:03:50;7.93;;;1.60;;
52878;SDS011;38747;53.140;6.498;2022-10-16T00:06:17;6.88;;;1.85;;
52878;SDS011;38747;53.140;6.498;2022-10-16T00:08:44;11.32;;;1.63;;
52878;SDS011;38747;53.140;6.498;2022-10-16T00:11:12;8.32;;;1.65;;
52878;SDS011;38747;53.140;6.498;2022-10-16T00:13:43;7.03;;;2.17;;
52878;SDS011;38747;53.140;6.498;2022-10-16T00:16:10;6.15;;;1.50;;
52878;SDS011;38747;53.140;6.498;2022-10-16T00:18:36;8.25;;;1.58;;
52878;SDS011;38747;53.140;6.498;2022-10-16T00:21:07;5.93;;;1.40;;
52878;SDS011;38747;53.140;6.498;2022-10-16T00:23:35;6.93;;;1.50;;
52878;SDS011;38747;53.140;6.498;2022-10-16T00:26:02;8.77;;;1.60;;
52878;SDS011;38747;53.140;6.498;2022-10-16T00:28:30;6.82;;;1.45;;
52878;SDS011;38747;53.140;6.498;2022-10-16T00:30:55;5.72;;;1.50;;
52878;SDS011;38747;53.140;6.498;2022-10-16T00:33:21;9.57;;;1.50;;
52878;SDS011;38747;53.140;6.498;2022-10-16T00:35:47;6.13;;;2.00;;
52878;SDS011;38747;53.140;6.498;2022-10-16T00:38:13;8.00;;;1.58;;
52878;SDS011;38747;53.140;6.498;2022-10-16T00:40:39;8.15;;;1.50;;
52878;SDS011;38747;53.140;6.498;2022-10-16T00:43:32;8.70;;;1.90;;
52878;SDS011;38747;53.140;6.498;2022-10-16T00:45:58;9.85;;;1.60;;
52878;SDS011;38747;53.140;6.498;2022-10-16T00:48:24;8.75;;;1.50;;
52878;SDS011;38747;53.140;6.498;2022-10-16T00:50:50;7.17;;;1.40;;
52878;SDS011;38747;53.140;6.498;2022-10-16T00:53:16;8.30;;;1.53;;
52878;SDS011;38747;53.140;6.498;2022-10-16T00:55:42;10.93;;;1.70;;
52878;SDS011;38747;53.140;6.498;2022-10-16T00:58:08;5.37;;;1.30;;
52878;SDS011;38747;53.140;6.498;2022-10-16T01:00:34;5.47;;;1.30;;
52878;SDS011;38747;53.140;6.498;2022-10-16T01:03:00;5.65;;;1.35;;
52878;SDS011;38747;53.140;6.498;2022-10-16T01:05:30;5.63;;;1.00;;
52878;SDS011;38747;53.140;6.498;2022-10-16T01:08:14;5.72;;;1.30;;
52878;SDS011;38747;53.140;6.498;2022-10-16T01:10:57;6.47;;;1.25;;
52878;SDS011;38747;53.140;6.498;2022-10-16T01:13:38;6.82;;;1.17;;
52878;SDS011;38747;53.140;6.498;2022-10-16T01:16:10;6.03;;;1.20;;
52878;SDS011;38747;53.140;6.498;2022-10-16T01:18:43;5.53;;;1.17;;
52878;SDS011;38747;53.140;6.498;2022-10-16T01:21:35;5.50;;;1.20;;
52878;SDS011;38747;53.140;6.498;2022-10-16T01:32:31;7.00;;;1.20;;
52878;SDS011;38747;53.140;6.498;2022-10-16T01:35:11;5.38;;;1.20;;
52878;SDS011;38747;53.140;6.498;2022-10-16T01:37:54;7.15;;;1.40;;
52878;SDS011;38747;53.140;6.498;2022-10-16T01:40:29;5.45;;;1.20;;
52878;SDS011;38747;53.140;6.498;2022-10-16T01:43:00;5.47;;;1.10;;
52878;SDS011;38747;53.140;6.498;2022-10-16T01:45:31;6.53;;;1.40;;
52878;SDS011;38747;53.140;6.498;2022-10-16T01:47:58;8.23;;;1.35;;
52878;SDS011;38747;53.140;6.498;2022-10-16T01:50:29;7.03;;;1.30;;
52878;SDS011;38747;53.140;6.498;2022-10-16T01:52:58;5.65;;;1.38;;
52878;SDS011;38747;53.140;6.498;2022-10-16T01:55:27;6.05;;;1.70;;
52878;SDS011;38747;53.140;6.498;2022-10-16T01:57:56;6.77;;;1.30;;
52878;SDS011;38747;53.140;6.498;2022-10-16T02:00:24;5.45;;;1.30;;
52878;SDS011;38747;53.140;6.498;2022-10-16T02:02:52;5.78;;;1.50;;
52878;SDS011;38747;53.140;6.498;2022-10-16T02:05:25;7.78;;;1.35;;
52878;SDS011;38747;53.140;6.498;2022-10-16T02:08:07;5.57;;;1.27;;
52878;SDS011;38747;53.140;6.498;2022-10-16T02:10:32;7.43;;;1.40;;
52878;SDS011;38747;53.140;6.498;2022-10-16T02:13:05;9.48;;;1.30;;
52878;SDS011;38747;53.140;6.498;2022-10-16T02:15:31;5.55;;;1.60;;
52878;SDS011;38747;53.140;6.498;2022-10-16T02:17:57;5.10;;;1.10;;
52878;SDS011;38747;53.140;6.498;2022-10-16T02:20:25;7.00;;;1.40;;
52878;SDS011;38747;53.140;6.498;2022-10-16T02:22:52;7.07;;;1.20;;
52878;SDS011;38747;53.140;6.498;2022-10-16T02:25:24;8.02;;;1.30;;
52878;SDS011;38747;53.140;6.498;2022-10-16T02:30:48;5.80;;;1.15;;
52878;SDS011;38747;53.140;6.498;2022-10-16T02:33:22;4.78;;;1.20;;
52878;SDS011;38747;53.140;6.498;2022-10-16T02:35:50;4.03;;;1.10;;
52878;SDS011;38747;53.140;6.498;2022-10-16T02:38:16;5.28;;;1.10;;
52878;SDS011;38747;53.140;6.498;2022-10-16T02:40:43;3.33;;;1.35;;
52878;SDS011;38747;53.140;6.498;2022-10-16T02:43:09;5.53;;;1.02;;
52878;SDS011;38747;53.140;6.498;2022-10-16T02:45:35;5.97;;;1.17;;
52878;SDS011;38747;53.140;6.498;2022-10-16T02:48:01;5.67;;;1.30;;
52878;SDS011;38747;53.140;6.498;2022-10-16T02:50:27;4.95;;;1.20;;
52878;SDS011;38747;53.140;6.498;2022-10-16T02:52:52;4.77;;;1.20;;
52878;SDS011;38747;53.140;6.498;2022-10-16T02:55:18;6.03;;;1.25;;
52878;SDS011;38747;53.140;6.498;2022-10-16T02:57:44;5.37;;;1.07;;
52878;SDS011;38747;53.140;6.498;2022-10-16T03:00:10;5.90;;;1.10;;
52878;SDS011;38747;53.140;6.498;2022-10-16T03:02:38;7.15;;;1.27;;
52878;SDS011;38747;53.140;6.498;2022-10-16T03:05:03;5.93;;;1.25;;
52878;SDS011;38747;53.140;6.498;2022-10-16T03:07:29;3.93;;;1.30;;
52878;SDS011;38747;53.140;6.498;2022-10-16T03:09:55;5.53;;;1.17;;
52878;SDS011;38747;53.140;6.498;2022-10-16T03:12:21;5.77;;;1.30;;
52878;SDS011;38747;53.140;6.498;2022-10-16T03:14:46;4.25;;;1.20;;
52878;SDS011;38747;53.140;6.498;2022-10-16T03:17:12;5.13;;;1.10;;
52878;SDS011;38747;53.140;6.498;2022-10-16T03:19:38;3.97;;;1.00;;
52878;SDS011;38747;53.140;6.498;2022-10-16T03:22:04;4.90;;;1.20;;
52878;SDS011;38747;53.140;6.498;2022-10-16T03:24:30;3.80;;;1.20;;
52878;SDS011;38747;53.140;6.498;2022-10-16T03:26:56;4.75;;;1.33;;
52878;SDS011;38747;53.140;6.498;2022-10-16T03:29:21;4.70;;;1.08;;
52878;SDS011;38747;53.140;6.498;2022-10-16T03:31:47;4.23;;;1.30;;
52878;SDS011;38747;53.140;6.498;2022-10-16T03:34:14;7.55;;;1.30;;
52878;SDS011;38747;53.140;6.498;2022-10-16T03:36:40;5.80;;;1.30;;
52878;SDS011;38747;53.140;6.498;2022-10-16T03:39:06;5.63;;;1.20;;
52878;SDS011;38747;53.140;6.498;2022-10-16T03:41:31;4.83;;;1.20;;
52878;SDS011;38747;53.140;6.498;2022-10-16T03:43:57;5.57;;;1.37;;
52878;SDS011;38747;53.140;6.498;2022-10-16T03:46:22;4.20;;;1.33;;
52878;SDS011;38747;53.140;6.498;2022-10-16T03:48:48;5.10;;;1.30;;
52878;SDS011;38747;53.140;6.498;2022-10-16T03:51:14;4.20;;;1.20;;
52878;SDS011;38747;53.140;6.498;2022-10-16T03:53:39;6.13;;;1.30;;
52878;SDS011;38747;53.140;6.498;2022-10-16T03:56:05;5.03;;;1.20;;
52878;SDS011;38747;53.140;6.498;2022-10-16T03:58:31;3.83;;;1.20;;
52878;SDS011;38747;53.140;6.498;2022-10-16T04:00:56;3.47;;;1.50;;
52878;SDS011;38747;53.140;6.498;2022-10-16T04:03:22;6.13;;;1.30;;
52878;SDS011;38747;53.140;6.498;2022-10-16T04:05:48;5.47;;;1.40;;
52878;SDS011;38747;53.140;6.498;2022-10-16T04:08:14;5.00;;;1.38;;
52878;SDS011;38747;53.140;6.498;2022-10-16T04:10:40;4.50;;;1.30;;
52878;SDS011;38747;53.140;6.498;2022-10-16T04:13:08;7.20;;;1.50;;
52878;SDS011;38747;53.140;6.498;2022-10-16T04:15:34;4.95;;;1.33;;
52878;SDS011;38747;53.140;6.498;2022-10-16T04:18:00;7.33;;;1.57;;
52878;SDS011;38747;53.140;6.498;2022-10-16T04:20:25;5.07;;;1.57;;
52878;SDS011;38747;53.140;6.498;2022-10-16T04:22:51;4.37;;;1.20;;
52878;SDS011;38747;53.140;6.498;2022-10-16T04:25:16;4.63;;;1.30;;
52878;SDS011;38747;53.140;6.498;2022-10-16T04:27:42;6.37;;;1.40;;
52878;SDS011;38747;53.140;6.498;2022-10-16T04:30:08;6.07;;;1.73;;
52878;SDS011;38747;53.140;6.498;2022-10-16T04:32:34;3.90;;;1.33;;
52878;SDS011;38747;53.140;6.498;2022-10-16T04:34:59;4.87;;;1.50;;
52878;SDS011;38747;53.140;6.498;2022-10-16T04:37:25;3.83;;;1.33;;
52878;SDS011;38747;53.140;6.498;2022-10-16T04:39:52;5.43;;;2.00;;
52878;SDS011;38747;53.140;6.498;2022-10-16T04:42:18;6.20;;;1.60;;
52878;SDS011;38747;53.140;6.498;2022-10-16T04:44:44;5.57;;;1.35;;
52878;SDS011;38747;53.140;6.498;2022-10-16T04:47:10;5.95;;;1.45;;
52878;SDS011;38747;53.140;6.498;2022-10-16T04:49:36;6.37;;;1.53;;
52878;SDS011;38747;53.140;6.498;2022-10-16T04:52:01;8.40;;;1.60;;
52878;SDS011;38747;53.140;6.498;2022-10-16T04:54:27;7.00;;;1.50;;
52878;SDS011;38747;53.140;6.498;2022-10-16T04:56:53;6.38;;;1.58;;
52878;SDS011;38747;53.140;6.498;2022-10-16T04:59:19;7.67;;;1.90;;
52878;SDS011;38747;53.140;6.498;2022-10-16T05:01:45;6.20;;;1.80;;
52878;SDS011;38747;53.140;6.498;2022-10-16T05:04:11;4.03;;;1.70;;
52878;SDS011;38747;53.140;6.498;2022-10-16T05:06:37;5.20;;;1.67;;
52878;SDS011;38747;53.140;6.498;2022-10-16T05:09:04;6.75;;;1.90;;
52878;SDS011;38747;53.140;6.498;2022-10-16T05:11:30;8.20;;;1.88;;
52878;SDS011;38747;53.140;6.498;2022-10-16T05:13:56;5.15;;;1.80;;
52878;SDS011;38747;53.140;6.498;2022-10-16T05:16:21;8.03;;;3.20;;
52878;SDS011;38747;53.140;6.498;2022-10-16T05:18:47;5.63;;;1.63;;
52878;SDS011;38747;53.140;6.498;2022-10-16T05:21:12;4.67;;;1.70;;
52878;SDS011;38747;53.140;6.498;2022-10-16T05:23:38;6.20;;;1.77;;
52878;SDS011;38747;53.140;6.498;2022-10-16T05:26:04;5.63;;;1.50;;
52878;SDS011;38747;53.140;6.498;2022-10-16T05:28:29;6.45;;;2.20;;
52878;SDS011;38747;53.140;6.498;2022-10-16T05:30:55;5.07;;;1.63;;
52878;SDS011;38747;53.140;6.498;2022-10-16T05:33:22;7.03;;;2.00;;
52878;SDS011;38747;53.140;6.498;2022-10-16T05:35:49;7.00;;;1.90;;
52878;SDS011;38747;53.140;6.498;2022-10-16T05:38:15;6.40;;;1.73;;
52878;SDS011;38747;53.140;6.498;2022-10-16T05:40:41;4.97;;;1.77;;
52878;SDS011;38747;53.140;6.498;2022-10-16T05:43:07;7.93;;;2.42;;
52878;SDS011;38747;53.140;6.498;2022-10-16T05:45:33;6.90;;;1.70;;
52878;SDS011;38747;53.140;6.498;2022-10-16T05:47:59;8.00;;;1.88;;
52878;SDS011;38747;53.140;6.498;2022-10-16T05:50:25;7.15;;;2.05;;
52878;SDS011;38747;53.140;6.498;2022-10-16T05:52:51;5.77;;;1.90;;
52878;SDS011;38747;53.140;6.498;2022-10-16T05:55:17;6.47;;;1.95;;
52878;SDS011;38747;53.140;6.498;2022-10-16T05:57:43;5.88;;;1.98;;
52878;SDS011;38747;53.140;6.498;2022-10-16T06:00:09;5.57;;;2.20;;
52878;SDS011;38747;53.140;6.498;2022-10-16T06:02:35;7.68;;;2.10;;
52878;SDS011;38747;53.140;6.498;2022-10-16T06:05:00;10.23;;;2.40;;
52878;SDS011;38747;53.140;6.498;2022-10-16T06:07:26;5.70;;;2.10;;
52878;SDS011;38747;53.140;6.498;2022-10-16T06:09:52;6.27;;;2.33;;
52878;SDS011;38747;53.140;6.498;2022-10-16T06:12:18;6.90;;;2.30;;
52878;SDS011;38747;53.140;6.498;2022-10-16T06:14:44;7.00;;;2.20;;
52878;SDS011;38747;53.140;6.498;2022-10-16T06:17:11;8.57;;;2.53;;
52878;SDS011;38747;53.140;6.498;2022-10-16T06:19:38;7.43;;;2.30;;
52878;SDS011;38747;53.140;6.498;2022-10-16T06:22:04;5.90;;;2.20;;
52878;SDS011;38747;53.140;6.498;2022-10-16T06:24:30;6.97;;;2.00;;
52878;SDS011;38747;53.140;6.498;2022-10-16T06:26:55;5.60;;;2.10;;
52878;SDS011;38747;53.140;6.498;2022-10-16T06:29:21;8.60;;;2.33;;
52878;SDS011;38747;53.140;6.498;2022-10-16T06:31:47;7.85;;;2.30;;
52878;SDS011;38747;53.140;6.498;2022-10-16T06:34:12;8.30;;;2.50;;
52878;SDS011;38747;53.140;6.498;2022-10-16T06:36:38;6.50;;;2.28;;
52878;SDS011;38747;53.140;6.498;2022-10-16T06:39:04;8.10;;;2.30;;
52878;SDS011;38747;53.140;6.498;2022-10-16T06:41:32;8.32;;;2.55;;
52878;SDS011;38747;53.140;6.498;2022-10-16T06:43:58;7.57;;;2.05;;
52878;SDS011;38747;53.140;6.498;2022-10-16T06:46:24;8.47;;;2.03;;
52878;SDS011;38747;53.140;6.498;2022-10-16T06:48:51;6.85;;;2.30;;
52878;SDS011;38747;53.140;6.498;2022-10-16T06:51:18;6.13;;;2.05;;
52878;SDS011;38747;53.140;6.498;2022-10-16T06:53:46;5.78;;;2.00;;
52878;SDS011;38747;53.140;6.498;2022-10-16T06:56:21;6.72;;;2.40;;
52878;SDS011;38747;53.140;6.498;2022-10-16T06:58:48;8.50;;;1.87;;
52878;SDS011;38747;53.140;6.498;2022-10-16T07:01:15;5.60;;;1.80;;
52878;SDS011;38747;53.140;6.498;2022-10-16T07:03:42;6.38;;;2.08;;
52878;SDS011;38747;53.140;6.498;2022-10-16T07:06:09;8.15;;;1.90;;
52878;SDS011;38747;53.140;6.498;2022-10-16T07:08:37;6.53;;;2.22;;
52878;SDS011;38747;53.140;6.498;2022-10-16T07:11:05;5.40;;;1.90;;
52878;SDS011;38747;53.140;6.498;2022-10-16T07:13:36;6.10;;;1.95;;
52878;SDS011;38747;53.140;6.498;2022-10-16T07:18:31;7.25;;;1.95;;
52878;SDS011;38747;53.140;6.498;2022-10-16T07:21:07;7.80;;;2.07;;
52878;SDS011;38747;53.140;6.498;2022-10-16T07:23:35;9.52;;;2.30;;
52878;SDS011;38747;53.140;6.498;2022-10-16T07:26:01;7.00;;;2.05;;
52878;SDS011;38747;53.140;6.498;2022-10-16T07:28:27;6.00;;;2.38;;
52878;SDS011;38747;53.140;6.498;2022-10-16T07:30:54;6.87;;;1.90;;
52878;SDS011;38747;53.140;6.498;2022-10-16T07:33:20;5.57;;;2.00;;
52878;SDS011;38747;53.140;6.498;2022-10-16T07:35:50;7.93;;;2.20;;
52878;SDS011;38747;53.140;6.498;2022-10-16T07:38:18;6.45;;;2.00;;
52878;SDS011;38747;53.140;6.498;2022-10-16T07:40:44;7.50;;;2.10;;
52878;SDS011;38747;53.140;6.498;2022-10-16T07:43:10;6.60;;;2.10;;
52878;SDS011;38747;53.140;6.498;2022-10-16T07:45:36;5.95;;;1.80;;
52878;SDS011;38747;53.140;6.498;2022-10-16T07:48:02;6.30;;;1.97;;
52878;SDS011;38747;53.140;6.498;2022-10-16T07:50:28;7.00;;;2.03;;
52878;SDS011;38747;53.140;6.498;2022-10-16T07:52:53;7.23;;;1.97;;
52878;SDS011;38747;53.140;6.498;2022-10-16T07:55:19;8.53;;;2.23;;
52878;SDS011;38747;53.140;6.498;2022-10-16T07:57:45;7.90;;;2.03;;
52878;SDS011;38747;53.140;6.498;2022-10-16T08:00:10;6.82;;;2.08;;
52878;SDS011;38747;53.140;6.498;2022-10-16T08:02:39;5.85;;;2.10;;
52878;SDS011;38747;53.140;6.498;2022-10-16T08:05:05;6.87;;;2.00;;
52878;SDS011;38747;53.140;6.498;2022-10-16T08:07:31;6.75;;;1.90;;
52878;SDS011;38747;53.140;6.498;2022-10-16T08:09:57;5.13;;;1.90;;
52878;SDS011;38747;53.140;6.498;2022-10-16T08:12:24;6.93;;;2.08;;
52878;SDS011;38747;53.140;6.498;2022-10-16T08:14:50;6.40;;;1.90;;
52878;SDS011;38747;53.140;6.498;2022-10-16T08:17:16;10.18;;;2.13;;
52878;SDS011;38747;53.140;6.498;2022-10-16T08:19:45;6.47;;;1.80;;
52878;SDS011;38747;53.140;6.498;2022-10-16T08:22:11;7.60;;;1.85;;
52878;SDS011;38747;53.140;6.498;2022-10-16T08:24:37;6.32;;;1.63;;
52878;SDS011;38747;53.140;6.498;2022-10-16T08:27:02;6.57;;;1.57;;
52878;SDS011;38747;53.140;6.498;2022-10-16T08:29:28;6.65;;;1.58;;
52878;SDS011;38747;53.140;6.498;2022-10-16T08:31:54;5.40;;;1.40;;
52878;SDS011;38747;53.140;6.498;2022-10-16T08:34:20;7.57;;;1.40;;
52878;SDS011;38747;53.140;6.498;2022-10-16T08:36:45;6.90;;;1.13;;
52878;SDS011;38747;53.140;6.498;2022-10-16T08:39:11;6.67;;;1.40;;
52878;SDS011;38747;53.140;6.498;2022-10-16T08:47:20;5.95;;;1.15;;
52878;SDS011;38747;53.140;6.498;2022-10-16T08:49:59;4.37;;;1.07;;
52878;SDS011;38747;53.140;6.498;2022-10-16T08:52:34;6.68;;;1.30;;
52878;SDS011;38747;53.140;6.498;2022-10-16T08:55:04;6.18;;;1.20;;
52878;SDS011;38747;53.140;6.498;2022-10-16T08:57:30;6.43;;;1.10;;
52878;SDS011;38747;53.140;6.498;2022-10-16T09:00:00;6.32;;;1.23;;
52878;SDS011;38747;53.140;6.498;2022-10-16T09:02:45;6.07;;;1.10;;
52878;SDS011;38747;53.140;6.498;2022-10-16T09:08:00;8.40;;;1.48;;
52878;SDS011;38747;53.140;6.498;2022-10-16T09:10:42;7.90;;;1.30;;
52878;SDS011;38747;53.140;6.498;2022-10-16T09:16:24;7.43;;;1.30;;
52878;SDS011;38747;53.140;6.498;2022-10-16T09:19:14;6.90;;;1.40;;
52878;SDS011;38747;53.140;6.498;2022-10-16T09:21:47;6.90;;;1.40;;
52878;SDS011;38747;53.140;6.498;2022-10-16T09:24:23;7.65;;;1.33;;
52878;SDS011;38747;53.140;6.498;2022-10-16T09:26:51;8.25;;;1.40;;
52878;SDS011;38747;53.140;6.498;2022-10-16T09:29:17;5.10;;;1.20;;
52878;SDS011;38747;53.140;6.498;2022-10-16T09:31:47;6.95;;;1.50;;
52878;SDS011;38747;53.140;6.498;2022-10-16T09:34:23;6.87;;;1.40;;
52878;SDS011;38747;53.140;6.498;2022-10-16T09:36:54;8.27;;;1.50;;
52878;SDS011;38747;53.140;6.498;2022-10-16T09:39:22;7.00;;;1.58;;
52878;SDS011;38747;53.140;6.498;2022-10-16T09:41:47;5.57;;;1.23;;
52878;SDS011;38747;53.140;6.498;2022-10-16T09:44:22;11.07;;;1.45;;
52878;SDS011;38747;53.140;6.498;2022-10-16T09:47:00;11.07;;;1.50;;
52878;SDS011;38747;53.140;6.498;2022-10-16T09:49:27;9.80;;;1.38;;
52878;SDS011;38747;53.140;6.498;2022-10-16T09:52:03;11.07;;;1.37;;
52878;SDS011;38747;53.140;6.498;2022-10-16T09:54:30;9.60;;;1.30;;
52878;SDS011;38747;53.140;6.498;2022-10-16T09:57:10;9.18;;;1.42;;
52878;SDS011;38747;53.140;6.498;2022-10-16T09:59:45;10.23;;;1.60;;
52878;SDS011;38747;53.140;6.498;2022-10-16T10:02:12;9.73;;;1.13;;
52878;SDS011;38747;53.140;6.498;2022-10-16T10:04:41;10.25;;;1.40;;
52878;SDS011;38747;53.140;6.498;2022-10-16T10:07:17;12.35;;;1.73;;
52878;SDS011;38747;53.140;6.498;2022-10-16T10:09:46;11.45;;;1.70;;
52878;SDS011;38747;53.140;6.498;2022-10-16T10:12:19;11.65;;;1.52;;
52878;SDS011;38747;53.140;6.498;2022-10-16T10:14:53;8.87;;;1.20;;
52878;SDS011;38747;53.140;6.498;2022-10-16T10:17:22;13.23;;;1.63;;
52878;SDS011;38747;53.140;6.498;2022-10-16T10:19:53;8.63;;;1.27;;
52878;SDS011;38747;53.140;6.498;2022-10-16T10:36:03;7.32;;;1.30;;
52878;SDS011;38747;53.140;6.498;2022-10-16T10:38:32;12.02;;;1.63;;
52878;SDS011;38747;53.140;6.498;2022-10-16T10:46:51;9.30;;;1.30;;
52878;SDS011;38747;53.140;6.498;2022-10-16T11:02:35;10.07;;;1.45;;
52878;SDS011;38747;53.140;6.498;2022-10-16T11:05:14;8.32;;;1.50;;
52878;SDS011;38747;53.140;6.498;2022-10-16T11:07:54;8.95;;;1.00;;
52878;SDS011;38747;53.140;6.498;2022-10-16T11:16:30;11.75;;;1.17;;
52878;SDS011;38747;53.140;6.498;2022-10-16T11:19:02;10.57;;;1.42;;
52878;SDS011;38747;53.140;6.498;2022-10-16T11:21:49;13.27;;;1.60;;
52878;SDS011;38747;53.140;6.498;2022-10-16T11:24:35;8.23;;;1.35;;
52878;SDS011;38747;53.140;6.498;2022-10-16T11:27:16;8.63;;;1.27;;
52878;SDS011;38747;53.140;6.498;2022-10-16T11:29:59;10.07;;;1.25;;
52878;SDS011;38747;53.140;6.498;2022-10-16T11:32:28;12.82;;;1.60;;
52878;SDS011;38747;53.140;6.498;2022-10-16T11:35:06;9.25;;;1.20;;
52878;SDS011;38747;53.140;6.498;2022-10-16T11:37:41;12.38;;;1.08;;
52878;SDS011;38747;53.140;6.498;2022-10-16T11:42:41;11.07;;;1.30;;
52878;SDS011;38747;53.140;6.498;2022-10-16T11:45:24;12.13;;;1.20;;
52878;SDS011;38747;53.140;6.498;2022-10-16T11:48:00;11.20;;;1.60;;
52878;SDS011;38747;53.140;6.498;2022-10-16T11:50:58;8.70;;;0.95;;
52878;SDS011;38747;53.140;6.498;2022-10-16T11:56:16;8.90;;;1.13;;
52878;SDS011;38747;53.140;6.498;2022-10-16T12:01:24;12.55;;;1.20;;
52878;SDS011;38747;53.140;6.498;2022-10-16T12:09:31;9.48;;;1.40;;
52878;SDS011;38747;53.140;6.498;2022-10-16T12:12:00;9.50;;;1.10;;
52878;SDS011;38747;53.140;6.498;2022-10-16T12:17:00;12.65;;;1.50;;
52878;SDS011;38747;53.140;6.498;2022-10-16T12:19:30;12.38;;;1.50;;
52878;SDS011;38747;53.140;6.498;2022-10-16T12:22:01;10.00;;;1.23;;
52878;SDS011;38747;53.140;6.498;2022-10-16T12:24:31;8.75;;;1.00;;
52878;SDS011;38747;53.140;6.498;2022-10-16T12:26:59;13.83;;;1.27;;
52878;SDS011;38747;53.140;6.498;2022-10-16T12:29:38;9.25;;;1.30;;
52878;SDS011;38747;53.140;6.498;2022-10-16T12:34:54;7.68;;;1.10;;
52878;SDS011;38747;53.140;6.498;2022-10-16T12:37:23;9.37;;;1.10;;
52878;SDS011;38747;53.140;6.498;2022-10-16T12:39:51;12.80;;;1.42;;
52878;SDS011;38747;53.140;6.498;2022-10-16T12:42:23;13.82;;;1.58;;
52878;SDS011;38747;53.140;6.498;2022-10-16T12:44:49;10.52;;;1.35;;
52878;SDS011;38747;53.140;6.498;2022-10-16T12:47:35;7.33;;;1.20;;
52878;SDS011;38747;53.140;6.498;2022-10-16T12:50:03;13.07;;;1.55;;
52878;SDS011;38747;53.140;6.498;2022-10-16T12:52:47;13.20;;;1.42;;
52878;SDS011;38747;53.140;6.498;2022-10-16T12:55:17;11.20;;;1.70;;
52878;SDS011;38747;53.140;6.498;2022-10-16T13:00:56;9.68;;;1.23;;
52878;SDS011;38747;53.140;6.498;2022-10-16T13:08:54;8.00;;;0.93;;
52878;SDS011;38747;53.140;6.498;2022-10-16T13:12:30;13.00;;;1.63;;
52878;SDS011;38747;53.140;6.498;2022-10-16T13:17:53;9.65;;;0.98;;
52878;SDS011;38747;53.140;6.498;2022-10-16T13:23:31;12.40;;;1.25;;
52878;SDS011;38747;53.140;6.498;2022-10-16T13:26:01;12.17;;;1.50;;
52878;SDS011;38747;53.140;6.498;2022-10-16T13:28:43;12.48;;;1.20;;
52878;SDS011;38747;53.140;6.498;2022-10-16T13:31:15;11.25;;;1.30;;
52878;SDS011;38747;53.140;6.498;2022-10-16T13:33:48;9.55;;;1.17;;
52878;SDS011;38747;53.140;6.498;2022-10-16T13:36:24;9.65;;;1.27;;
52878;SDS011;38747;53.140;6.498;2022-10-16T13:41:38;8.10;;;1.23;;
52878;SDS011;38747;53.140;6.498;2022-10-16T13:44:04;8.43;;;1.20;;
52878;SDS011;38747;53.140;6.498;2022-10-16T13:46:34;14.57;;;1.90;;
52878;SDS011;38747;53.140;6.498;2022-10-16T13:49:01;10.37;;;1.23;;
52878;SDS011;38747;53.140;6.498;2022-10-16T13:51:31;16.40;;;1.40;;
52878;SDS011;38747;53.140;6.498;2022-10-16T13:53:57;10.93;;;1.33;;
52878;SDS011;38747;53.140;6.498;2022-10-16T13:56:28;11.75;;;1.60;;
52878;SDS011;38747;53.140;6.498;2022-10-16T13:59:03;10.57;;;1.20;;
52878;SDS011;38747;53.140;6.498;2022-10-16T14:01:31;11.55;;;1.48;;
52878;SDS011;38747;53.140;6.498;2022-10-16T14:04:06;10.77;;;1.58;;
52878;SDS011;38747;53.140;6.498;2022-10-16T14:06:34;13.65;;;1.50;;
52878;SDS011;38747;53.140;6.498;2022-10-16T14:09:05;10.68;;;1.25;;
52878;SDS011;38747;53.140;6.498;2022-10-16T14:11:33;12.87;;;1.83;;
52878;SDS011;38747;53.140;6.498;2022-10-16T14:14:10;8.13;;;1.20;;
52878;SDS011;38747;53.140;6.498;2022-10-16T14:16:37;11.85;;;1.40;;
52878;SDS011;38747;53.140;6.498;2022-10-16T14:19:13;13.30;;;1.60;;
52878;SDS011;38747;53.140;6.498;2022-10-16T14:21:59;12.20;;;1.70;;
52878;SDS011;38747;53.140;6.498;2022-10-16T14:24:31;10.00;;;1.10;;
52878;SDS011;38747;53.140;6.498;2022-10-16T14:26:58;15.07;;;1.63;;
52878;SDS011;38747;53.140;6.498;2022-10-16T14:29:26;9.50;;;1.30;;
52878;SDS011;38747;53.140;6.498;2022-10-16T14:31:56;10.20;;;1.50;;
52878;SDS011;38747;53.140;6.498;2022-10-16T14:36:58;10.27;;;1.23;;
52878;SDS011;38747;53.140;6.498;2022-10-16T14:39:33;10.95;;;1.88;;
52878;SDS011;38747;53.140;6.498;2022-10-16T14:42:00;10.45;;;1.48;;
52878;SDS011;38747;53.140;6.498;2022-10-16T14:44:27;10.70;;;1.10;;
52878;SDS011;38747;53.140;6.498;2022-10-16T14:46:56;7.67;;;1.10;;
52878;SDS011;38747;53.140;6.498;2022-10-16T14:49:22;11.95;;;1.10;;
52878;SDS011;38747;53.140;6.498;2022-10-16T14:51:49;10.18;;;1.13;;
52878;SDS011;38747;53.140;6.498;2022-10-16T14:54:16;10.88;;;1.40;;
52878;SDS011;38747;53.140;6.498;2022-10-16T14:56:48;10.30;;;1.40;;
52878;SDS011;38747;53.140;6.498;2022-10-16T14:59:23;8.52;;;1.20;;
52878;SDS011;38747;53.140;6.498;2022-10-16T15:01:53;9.30;;;1.10;;
52878;SDS011;38747;53.140;6.498;2022-10-16T15:04:18;9.60;;;1.23;;
52878;SDS011;38747;53.140;6.498;2022-10-16T15:06:44;14.30;;;1.30;;
52878;SDS011;38747;53.140;6.498;2022-10-16T15:09:10;13.68;;;1.30;;
52878;SDS011;38747;53.140;6.498;2022-10-16T15:11:35;10.03;;;1.27;;
52878;SDS011;38747;53.140;6.498;2022-10-16T15:14:01;12.20;;;1.35;;
52878;SDS011;38747;53.140;6.498;2022-10-16T15:16:28;10.87;;;1.30;;
52878;SDS011;38747;53.140;6.498;2022-10-16T15:18:55;10.02;;;1.25;;
52878;SDS011;38747;53.140;6.498;2022-10-16T15:21:22;9.45;;;1.08;;
52878;SDS011;38747;53.140;6.498;2022-10-16T15:23:51;9.18;;;1.40;;
52878;SDS011;38747;53.140;6.498;2022-10-16T15:26:17;36.03;;;3.63;;
52878;SDS011;38747;53.140;6.498;2022-10-16T15:28:42;13.00;;;1.45;;
52878;SDS011;38747;53.140;6.498;2022-10-16T15:31:08;12.07;;;1.10;;
52878;SDS011;38747;53.140;6.498;2022-10-16T15:33:34;6.80;;;0.93;;
52878;SDS011;38747;53.140;6.498;2022-10-16T15:36:00;10.80;;;1.40;;
52878;SDS011;38747;53.140;6.498;2022-10-16T15:38:27;11.50;;;1.30;;
52878;SDS011;38747;53.140;6.498;2022-10-16T15:40:53;10.23;;;1.27;;
52878;SDS011;38747;53.140;6.498;2022-10-16T15:43:19;10.40;;;1.55;;
52878;SDS011;38747;53.140;6.498;2022-10-16T15:45:59;13.07;;;1.83;;
52878;SDS011;38747;53.140;6.498;2022-10-16T15:48:26;10.73;;;1.20;;
52878;SDS011;38747;53.140;6.498;2022-10-16T15:50:52;7.75;;;1.30;;
52878;SDS011;38747;53.140;6.498;2022-10-16T15:53:18;7.30;;;1.88;;
52878;SDS011;38747;53.140;6.498;2022-10-16T15:55:44;11.27;;;1.67;;
52878;SDS011;38747;53.140;6.498;2022-10-16T15:58:09;14.40;;;1.63;;
52878;SDS011;38747;53.140;6.498;2022-10-16T16:00:35;12.18;;;2.22;;
52878;SDS011;38747;53.140;6.498;2022-10-16T16:03:00;11.87;;;2.73;;
52878;SDS011;38747;53.140;6.498;2022-10-16T16:05:26;15.93;;;3.00;;
52878;SDS011;38747;53.140;6.498;2022-10-16T16:07:52;12.68;;;3.28;;
52878;SDS011;38747;53.140;6.498;2022-10-16T16:10:18;12.47;;;3.00;;
52878;SDS011;38747;53.140;6.498;2022-10-16T16:12:46;14.80;;;3.25;;
52878;SDS011;38747;53.140;6.498;2022-10-16T16:15:16;12.82;;;3.08;;
52878;SDS011;38747;53.140;6.498;2022-10-16T16:17:43;12.18;;;3.42;;
52878;SDS011;38747;53.140;6.498;2022-10-16T16:20:09;14.00;;;2.77;;
52878;SDS011;38747;53.140;6.498;2022-10-16T16:22:35;15.27;;;2.95;;
52878;SDS011;38747;53.140;6.498;2022-10-16T16:25:01;11.73;;;2.72;;
52878;SDS011;38747;53.140;6.498;2022-10-16T16:27:27;13.73;;;1.97;;
52878;SDS011;38747;53.140;6.498;2022-10-16T16:29:54;12.93;;;2.00;;
52878;SDS011;38747;53.140;6.498;2022-10-16T16:32:20;13.13;;;2.08;;
52878;SDS011;38747;53.140;6.498;2022-10-16T16:34:46;10.23;;;1.88;;
52878;SDS011;38747;53.140;6.498;2022-10-16T16:37:12;14.30;;;2.07;;